Time;durP1;ratioP1;P1;durP2;ratioP2;P2;SDS_P1;SDS_P2;PMS_P1;PMS_P2;Temp;Humidity;BMP_temperature;BMP_pressure;BME280_temperature;BME280_humidity;BME280_pressure;Samples;Min_cycle;Max_cycle;Signal;HPM_P1;HPM_P2
2021/05/08 00:02:09;;;;;;;1.75;1.15;;;11.20;99.90;;;;;;4955861;29;20023;-70
2021/05/08 00:04:35;;;;;;;1.33;0.95;;;11.20;99.90;;;;;;4956477;29;20028;-70
2021/05/08 00:07:01;;;;;;;1.95;1.00;;;11.30;99.90;;;;;;4956335;29;20050;-68
2021/05/08 00:09:28;;;;;;;2.22;1.10;;;11.20;99.90;;;;;;4956386;29;20043;-71
2021/05/08 00:11:55;;;;;;;1.60;1.10;;;11.20;99.90;;;;;;4956660;29;20098;-70
2021/05/08 00:14:23;;;;;;;2.25;1.10;;;11.30;99.90;;;;;;4938483;29;20027;-71
2021/05/08 00:16:49;;;;;;;2.00;1.15;;;11.30;99.90;;;;;;4955764;29;20031;-70
2021/05/08 00:19:15;;;;;;;1.75;0.93;;;11.20;99.90;;;;;;4956152;29;20435;-68
2021/05/08 00:21:40;;;;;;;1.52;1.10;;;11.10;99.90;;;;;;4955880;29;20055;-70
2021/05/08 00:24:07;;;;;;;1.67;1.02;;;11.20;99.90;;;;;;4956507;29;20103;-69
2021/05/08 00:26:33;;;;;;;1.95;1.30;;;11.20;99.90;;;;;;4956036;29;20039;-70
2021/05/08 00:28:59;;;;;;;1.60;1.08;;;11.20;99.90;;;;;;4956133;29;20028;-70
2021/05/08 00:31:25;;;;;;;2.17;1.00;;;11.20;99.90;;;;;;4954808;28;20023;-71
2021/05/08 00:33:51;;;;;;;1.88;1.20;;;11.30;99.90;;;;;;4955777;29;20028;-70
2021/05/08 00:36:17;;;;;;;2.05;1.20;;;11.20;99.90;;;;;;4955628;29;20549;-68
2021/05/08 00:38:43;;;;;;;2.10;1.23;;;11.20;99.90;;;;;;4956075;29;20035;-68
2021/05/08 00:41:09;;;;;;;2.88;1.60;;;11.00;99.90;;;;;;4938883;29;20102;-70
2021/05/08 00:43:35;;;;;;;2.47;1.42;;;11.20;99.90;;;;;;4955522;29;20019;-68
2021/05/08 00:46:01;;;;;;;3.30;1.50;;;11.30;99.90;;;;;;4955251;29;20027;-68
2021/05/08 00:48:28;;;;;;;2.67;1.55;;;11.30;99.90;;;;;;4955529;29;20374;-70
2021/05/08 00:50:55;;;;;;;2.08;1.42;;;11.50;99.90;;;;;;4938486;29;20055;-70
2021/05/08 00:53:21;;;;;;;2.10;1.40;;;11.40;99.90;;;;;;4955309;29;20083;-69
2021/05/08 00:55:47;;;;;;;2.72;1.42;;;11.50;99.90;;;;;;4955546;29;20031;-70
2021/05/08 00:58:13;;;;;;;3.03;1.63;;;11.40;99.90;;;;;;4955253;29;20027;-68
2021/05/08 01:00:40;;;;;;;3.25;1.45;;;11.50;99.90;;;;;;4955419;29;20101;-71
2021/05/08 01:03:07;;;;;;;2.83;1.40;;;11.40;99.90;;;;;;4955156;29;20027;-71
2021/05/08 01:05:34;;;;;;;3.10;1.83;;;11.30;99.90;;;;;;4955460;29;20085;-68
2021/05/08 01:08:01;;;;;;;3.08;1.70;;;11.40;99.90;;;;;;4955644;29;20015;-71
2021/05/08 01:10:29;;;;;;;4.57;1.95;;;11.30;99.90;;;;;;4955404;29;20016;-70
2021/05/08 01:12:59;;;;;;;2.78;1.67;;;11.40;99.90;;;;;;4955415;29;20070;-71
2021/05/08 01:15:26;;;;;;;2.80;1.70;;;11.50;99.90;;;;;;4938046;29;20379;-70
2021/05/08 01:17:52;;;;;;;2.30;1.45;;;11.50;99.90;;;;;;4955406;29;20027;-70
2021/05/08 01:20:19;;;;;;;4.80;2.72;;;11.50;99.90;;;;;;4937600;29;20363;-70
2021/05/08 01:22:45;;;;;;;4.10;1.90;;;11.40;99.90;;;;;;4955577;29;20114;-70
2021/05/08 01:25:20;;;;;;;2.83;1.60;;;11.30;99.90;;;;;;4955283;29;20027;-68
2021/05/08 01:27:51;;;;;;;5.70;2.70;;;11.30;99.90;;;;;;4955280;29;20095;-70
2021/05/08 01:30:21;;;;;;;3.20;2.00;;;11.40;99.90;;;;;;4955005;29;20451;-68
2021/05/08 01:32:48;;;;;;;5.75;2.10;;;11.30;99.90;;;;;;4955369;29;20106;-70
2021/05/08 01:35:15;;;;;;;5.25;2.30;;;11.40;99.90;;;;;;4938103;29;20026;-71
2021/05/08 01:38:21;;;;;;;3.85;2.17;;;11.30;99.90;;;;;;4937836;29;20023;-71
2021/05/08 01:40:47;;;;;;;4.13;2.50;;;11.50;99.90;;;;;;4955153;29;20394;-70
2021/05/08 01:43:13;;;;;;;6.35;2.58;;;11.40;99.90;;;;;;4957563;28;20039;-68
2021/05/08 01:45:39;;;;;;;3.45;2.15;;;11.40;99.90;;;;;;4958653;29;20024;-70
2021/05/08 01:48:07;;;;;;;7.10;3.95;;;11.40;99.90;;;;;;4958662;29;20413;-70
2021/05/08 01:50:33;;;;;;;3.60;2.38;;;11.30;99.90;;;;;;4958440;29;20481;-68
2021/05/08 01:52:59;;;;;;;4.15;2.17;;;11.20;99.90;;;;;;4958117;29;20458;-68
2021/05/08 01:55:27;;;;;;;4.10;2.38;;;11.40;99.90;;;;;;4958496;29;20087;-70
2021/05/08 01:57:55;;;;;;;3.30;2.00;;;11.30;99.90;;;;;;4958286;29;20058;-70
2021/05/08 02:00:43;;;;;;;7.15;3.28;;;11.40;99.90;;;;;;4941132;29;20078;-70
2021/05/08 02:03:12;;;;;;;4.32;2.20;;;11.40;99.90;;;;;;4958143;29;20069;-70
2021/05/08 02:05:39;;;;;;;5.60;3.20;;;11.30;99.90;;;;;;4940760;29;20042;-70
2021/05/08 02:08:07;;;;;;;3.67;2.22;;;11.30;99.90;;;;;;4958309;29;20370;-70
2021/05/08 02:10:34;;;;;;;10.32;4.57;;;11.30;99.90;;;;;;4958189;29;20031;-70
2021/05/08 02:13:01;;;;;;;11.00;5.80;;;11.40;99.90;;;;;;4958294;29;20012;-70
2021/05/08 02:15:27;;;;;;;7.90;4.65;;;11.40;99.90;;;;;;4940765;29;20020;-71
2021/05/08 02:17:53;;;;;;;4.50;2.55;;;11.40;99.90;;;;;;4957826;29;20023;-70
2021/05/08 02:20:23;;;;;;;3.33;2.40;;;11.30;99.90;;;;;;4958077;29;20030;-71
2021/05/08 02:22:50;;;;;;;7.13;3.75;;;11.40;99.90;;;;;;4958252;29;20027;-70
2021/05/08 02:25:17;;;;;;;11.25;5.68;;;11.30;99.90;;;;;;4940670;29;20035;-70
2021/05/08 02:27:46;;;;;;;3.95;2.75;;;11.20;99.90;;;;;;4957969;29;20035;-70
2021/05/08 02:30:14;;;;;;;3.00;2.13;;;11.20;99.90;;;;;;4957548;29;20027;-68
2021/05/08 02:32:41;;;;;;;5.10;4.18;;;11.10;99.90;;;;;;4957609;29;20470;-70
2021/05/08 02:35:09;;;;;;;4.60;3.00;;;11.20;99.90;;;;;;4957813;29;20023;-70
2021/05/08 02:37:36;;;;;;;3.95;2.70;;;11.20;99.90;;;;;;4957893;29;20074;-70
2021/05/08 02:40:08;;;;;;;2.97;2.25;;;11.30;99.90;;;;;;4940414;29;20709;-68
2021/05/08 02:42:36;;;;;;;3.85;2.50;;;11.20;99.90;;;;;;4957635;29;20086;-70
2021/05/08 02:45:03;;;;;;;3.55;2.30;;;11.30;99.90;;;;;;4957398;29;20394;-69
2021/05/08 02:47:29;;;;;;;4.80;2.80;;;11.20;99.90;;;;;;4957855;29;20030;-70
2021/05/08 02:49:55;;;;;;;4.80;2.85;;;11.20;99.90;;;;;;4957334;29;20118;-68
2021/05/08 02:52:21;;;;;;;5.13;3.60;;;11.40;99.90;;;;;;4957220;29;20389;-69
2021/05/08 02:54:48;;;;;;;3.58;2.50;;;11.40;99.90;;;;;;4956706;28;20027;-68
2021/05/08 02:57:15;;;;;;;4.80;2.80;;;11.30;99.90;;;;;;4957555;29;20020;-69
2021/05/08 02:59:41;;;;;;;3.33;2.78;;;11.10;99.90;;;;;;4957158;29;20489;-69
2021/05/08 03:02:08;;;;;;;5.68;3.10;;;11.20;99.90;;;;;;4957483;29;20414;-72
2021/05/08 03:04:34;;;;;;;4.70;2.85;;;11.30;99.90;;;;;;4956927;29;20067;-69
2021/05/08 03:07:03;;;;;;;5.45;2.40;;;11.20;99.90;;;;;;4957303;29;20098;-69
2021/05/08 03:09:30;;;;;;;3.83;2.75;;;11.20;99.90;;;;;;4957126;29;20026;-67
2021/05/08 03:11:58;;;;;;;4.97;3.05;;;11.20;99.90;;;;;;4957067;29;20026;-68
2021/05/08 03:14:24;;;;;;;4.57;2.72;;;11.20;99.90;;;;;;4956561;29;20023;-69
2021/05/08 03:16:50;;;;;;;4.22;2.72;;;11.10;99.90;;;;;;4956858;29;20418;-68
2021/05/08 03:19:16;;;;;;;4.43;2.75;;;11.20;99.90;;;;;;4956984;29;20474;-66
2021/05/08 03:21:42;;;;;;;5.53;4.20;;;11.10;99.90;;;;;;4956864;29;20030;-68
2021/05/08 03:24:08;;;;;;;9.23;6.07;;;11.10;99.90;;;;;;4956927;29;20034;-69
2021/05/08 03:26:34;;;;;;;11.25;7.40;;;11.20;99.90;;;;;;4956686;29;20039;-67
2021/05/08 03:29:00;;;;;;;22.17;13.68;;;11.20;99.90;;;;;;4956650;29;20029;-69
2021/05/08 03:31:26;;;;;;;10.95;6.72;;;11.20;99.90;;;;;;4956829;29;20497;-68
2021/05/08 03:33:52;;;;;;;14.27;9.30;;;11.10;99.90;;;;;;4956517;29;20431;-69
2021/05/08 03:36:18;;;;;;;7.50;4.95;;;11.10;99.90;;;;;;4956506;29;20109;-69
2021/05/08 03:38:44;;;;;;;7.40;5.32;;;11.00;99.90;;;;;;4956458;29;20374;-68
2021/05/08 03:41:10;;;;;;;6.35;4.00;;;10.90;99.90;;;;;;4937802;29;20030;-67
2021/05/08 03:43:36;;;;;;;7.72;5.10;;;10.90;99.90;;;;;;4956544;29;20356;-69
2021/05/08 03:46:02;;;;;;;14.57;9.13;;;11.00;99.90;;;;;;4956416;29;20043;-69
2021/05/08 03:48:28;;;;;;;8.95;6.10;;;11.00;99.90;;;;;;4956135;29;20035;-69
2021/05/08 03:50:54;;;;;;;9.00;5.57;;;11.00;99.90;;;;;;4939344;29;20027;-68
2021/05/08 03:53:24;;;;;;;13.60;9.60;;;10.90;99.90;;;;;;4955895;29;20039;-68
2021/05/08 03:55:51;;;;;;;7.90;4.78;;;11.00;99.90;;;;;;4956037;29;20023;-69
2021/05/08 03:58:29;;;;;;;6.20;4.18;;;10.90;99.90;;;;;;4955660;29;20023;-68
2021/05/08 04:00:56;;;;;;;4.90;3.00;;;11.00;99.90;;;;;;4956068;29;20445;-69
2021/05/08 04:03:23;;;;;;;6.22;4.25;;;10.80;99.90;;;;;;4955428;29;20035;-69
2021/05/08 04:05:49;;;;;;;5.13;3.17;;;10.90;99.90;;;;;;4955708;28;20031;-69
2021/05/08 04:08:15;;;;;;;4.60;3.20;;;10.80;99.90;;;;;;4938699;29;20051;-68
2021/05/08 04:10:45;;;;;;;5.32;3.03;;;10.90;99.90;;;;;;4956112;29;20433;-69
2021/05/08 04:13:12;;;;;;;5.03;3.70;;;11.00;99.90;;;;;;4956331;29;20393;-69
2021/05/08 04:15:38;;;;;;;6.80;4.70;;;11.00;99.90;;;;;;4955829;29;20019;-68
2021/05/08 04:18:04;;;;;;;7.43;5.35;;;11.10;99.90;;;;;;4955829;29;20031;-67
2021/05/08 04:20:30;;;;;;;6.72;4.00;;;11.00;99.90;;;;;;4955904;29;20082;-68
2021/05/08 04:22:56;;;;;;;5.80;4.47;;;11.10;99.90;;;;;;4955597;29;20023;-69
2021/05/08 04:25:22;;;;;;;5.22;4.07;;;11.20;99.90;;;;;;4955476;29;20041;-68
2021/05/08 04:27:48;;;;;;;9.07;4.57;;;11.10;99.90;;;;;;4955807;29;20027;-69
2021/05/08 04:30:14;;;;;;;7.07;3.90;;;11.20;99.90;;;;;;4938473;29;20382;-67
2021/05/08 04:32:40;;;;;;;5.55;3.83;;;11.10;99.90;;;;;;4955463;29;20031;-67
2021/05/08 04:35:07;;;;;;;10.40;6.43;;;11.20;99.90;;;;;;4955896;29;20073;-69
2021/05/08 04:37:33;;;;;;;10.23;6.78;;;11.20;99.90;;;;;;4955638;29;20027;-68
2021/05/08 04:39:59;;;;;;;6.55;4.68;;;11.20;99.90;;;;;;4955407;29;20030;-69
2021/05/08 04:42:25;;;;;;;6.78;4.88;;;11.20;99.90;;;;;;4955520;29;20023;-67
2021/05/08 04:44:50;;;;;;;6.25;4.15;;;11.30;99.90;;;;;;4955296;29;20033;-67
2021/05/08 04:47:20;;;;;;;9.32;5.90;;;11.30;99.90;;;;;;4938201;29;20031;-68
2021/05/08 04:49:46;;;;;;;9.25;5.35;;;11.40;99.90;;;;;;4955691;29;20023;-69
2021/05/08 04:52:12;;;;;;;9.65;6.13;;;11.40;99.90;;;;;;4955728;29;20081;-68
2021/05/08 04:54:38;;;;;;;10.88;6.55;;;11.40;99.90;;;;;;4955544;29;20041;-68
2021/05/08 04:57:04;;;;;;;8.85;6.10;;;11.50;99.90;;;;;;4955436;29;20027;-69
2021/05/08 04:59:30;;;;;;;9.73;6.35;;;11.50;99.90;;;;;;4955435;29;20024;-69
2021/05/08 05:01:57;;;;;;;14.52;7.47;;;11.60;99.90;;;;;;4955348;29;20482;-67
2021/05/08 05:04:22;;;;;;;10.93;6.47;;;11.50;99.90;;;;;;4955166;29;20059;-68
2021/05/08 05:06:48;;;;;;;8.73;6.65;;;11.50;99.90;;;;;;4955267;29;20078;-68
2021/05/08 05:09:14;;;;;;;11.90;7.45;;;11.60;99.90;;;;;;4955032;29;20070;-70
2021/05/08 05:11:40;;;;;;;9.45;5.65;;;11.50;99.90;;;;;;4955259;29;20027;-69
2021/05/08 05:14:06;;;;;;;6.72;4.22;;;11.40;99.90;;;;;;4955029;29;20030;-68
2021/05/08 05:16:32;;;;;;;6.22;4.20;;;11.40;99.90;;;;;;4956033;28;20031;-69
2021/05/08 05:18:58;;;;;;;6.68;4.78;;;11.40;99.90;;;;;;4958977;29;20019;-69
2021/05/08 05:21:24;;;;;;;12.18;8.10;;;11.50;99.90;;;;;;4958638;29;20066;-69
2021/05/08 05:23:50;;;;;;;10.77;7.13;;;11.50;99.90;;;;;;4958512;29;20029;-69
2021/05/08 05:26:16;;;;;;;9.77;6.13;;;11.60;99.90;;;;;;4958995;29;20107;-69
2021/05/08 05:28:42;;;;;;;8.00;4.78;;;11.80;99.90;;;;;;4957874;29;20031;-70
2021/05/08 05:31:08;;;;;;;10.77;5.53;;;11.70;99.90;;;;;;4958483;29;20468;-68
2021/05/08 05:33:34;;;;;;;5.60;3.90;;;11.60;99.90;;;;;;4959084;29;20513;-67
2021/05/08 05:36:00;;;;;;;6.25;4.05;;;11.70;99.90;;;;;;4958788;29;20031;-69
2021/05/08 05:38:26;;;;;;;5.20;3.30;;;11.80;99.90;;;;;;4958855;29;20024;-69
2021/05/08 05:40:53;;;;;;;5.70;3.60;;;11.80;99.90;;;;;;4958747;29;20378;-69
2021/05/08 05:43:19;;;;;;;4.60;3.35;;;11.70;99.90;;;;;;4958390;29;20035;-67
2021/05/08 05:45:45;;;;;;;5.88;3.85;;;11.70;99.90;;;;;;4958718;29;20026;-69
2021/05/08 05:48:11;;;;;;;8.10;3.70;;;11.90;99.90;;;;;;4958026;29;20020;-67
2021/05/08 05:50:41;;;;;;;5.07;3.03;;;11.90;99.90;;;;;;4958884;29;20039;-69
2021/05/08 05:53:08;;;;;;;5.35;3.95;;;11.90;99.90;;;;;;4957187;29;20062;-70
2021/05/08 05:55:34;;;;;;;5.82;3.20;;;11.90;99.90;;;;;;4958489;29;20051;-69
2021/05/08 05:58:01;;;;;;;5.82;4.00;;;12.00;99.40;;;;;;4941032;29;20026;-69
2021/05/08 06:00:27;;;;;;;11.55;7.90;;;12.00;98.20;;;;;;4940987;29;20026;-69
2021/05/08 06:02:53;;;;;;;12.18;7.72;;;11.90;97.80;;;;;;4958246;29;20417;-68
2021/05/08 06:05:19;;;;;;;11.90;7.88;;;12.20;99.70;;;;;;4958186;28;20031;-70
2021/05/08 06:07:45;;;;;;;11.30;7.68;;;12.20;99.30;;;;;;4966244;28;20042;-69
2021/05/08 06:10:14;;;;;;;9.25;7.00;;;12.10;98.80;;;;;;4966739;28;20365;-70
2021/05/08 06:12:41;;;;;;;7.60;5.25;;;12.10;97.50;;;;;;4967194;28;20014;-68
2021/05/08 06:15:09;;;;;;;4.95;4.25;;;12.20;98.40;;;;;;4966603;28;20414;-68
2021/05/08 06:17:35;;;;;;;5.75;4.60;;;12.30;98.50;;;;;;4960793;28;20032;-68
2021/05/08 06:20:02;;;;;;;5.43;3.60;;;12.70;98.80;;;;;;4956953;29;20426;-66
2021/05/08 06:22:27;;;;;;;4.80;3.70;;;12.70;98.20;;;;;;4961003;28;20018;-68
2021/05/08 06:24:53;;;;;;;5.13;3.45;;;12.70;95.60;;;;;;4965005;28;20489;-68
2021/05/08 06:27:21;;;;;;;4.55;3.70;;;12.50;95.50;;;;;;4965657;28;20030;-68
2021/05/08 06:29:47;;;;;;;4.78;3.60;;;12.50;95.30;;;;;;4965853;28;20022;-70
2021/05/08 06:32:14;;;;;;;4.10;3.38;;;12.60;96.30;;;;;;4948932;28;20082;-69
2021/05/08 06:34:39;;;;;;;5.32;4.03;;;12.60;94.20;;;;;;4965869;28;20473;-67
2021/05/08 06:37:06;;;;;;;5.40;3.40;;;12.70;94.30;;;;;;4969185;28;20023;-68
2021/05/08 06:39:32;;;;;;;4.80;3.60;;;12.90;93.80;;;;;;4968872;28;20018;-69
2021/05/08 06:41:58;;;;;;;4.07;3.30;;;12.90;94.20;;;;;;4969353;28;20106;-69
2021/05/08 06:44:25;;;;;;;4.90;3.60;;;13.20;93.60;;;;;;4972481;28;20173;-69
2021/05/08 06:46:52;;;;;;;4.03;3.20;;;13.00;91.70;;;;;;4978961;28;20693;-68
2021/05/08 06:49:18;;;;;;;5.85;3.63;;;13.50;94.40;;;;;;4979200;28;20058;-69
2021/05/08 06:51:44;;;;;;;3.60;2.88;;;13.50;93.40;;;;;;4961114;28;20026;-70
2021/05/08 06:54:10;;;;;;;4.43;3.40;;;13.30;90.20;;;;;;4977103;28;20433;-69
2021/05/08 06:56:36;;;;;;;4.68;3.45;;;13.20;88.80;;;;;;4977151;28;20030;-70
2021/05/08 06:59:02;;;;;;;5.28;3.40;;;13.30;91.50;;;;;;4977184;28;20023;-71
2021/05/08 07:01:28;;;;;;;4.80;3.10;;;13.20;89.80;;;;;;4977282;28;20417;-69
2021/05/08 07:03:54;;;;;;;4.57;3.40;;;13.30;88.90;;;;;;4977240;28;20026;-70
2021/05/08 07:06:22;;;;;;;4.38;3.28;;;13.60;91.80;;;;;;4976422;28;20058;-69
2021/05/08 07:08:48;;;;;;;6.63;3.08;;;14.10;91.40;;;;;;4976784;28;20491;-70
2021/05/08 07:11:14;;;;;;;5.13;3.45;;;14.50;91.30;;;;;;4976566;28;20098;-69
2021/05/08 07:13:39;;;;;;;6.10;3.88;;;14.50;90.70;;;;;;4975638;28;20378;-71
2021/05/08 07:16:05;;;;;;;3.55;3.20;;;14.30;88.10;;;;;;4971190;28;20122;-70
2021/05/08 07:18:31;;;;;;;4.13;3.17;;;14.60;88.80;;;;;;4966034;28;20054;-69
2021/05/08 07:20:57;;;;;;;3.88;3.30;;;14.60;85.70;;;;;;4964753;28;20023;-70
2021/05/08 07:23:23;;;;;;;6.18;4.40;;;14.40;85.20;;;;;;4966757;28;20055;-71
2021/05/08 07:25:49;;;;;;;5.68;3.55;;;14.80;87.80;;;;;;4966588;28;20024;-69
2021/05/08 07:28:16;;;;;;;4.55;3.40;;;14.90;85.00;;;;;;4967676;28;20042;-71
2021/05/08 07:30:44;;;;;;;49.38;22.90;;;15.20;82.20;;;;;;4965120;28;20038;-70
2021/05/08 07:33:11;;;;;;;24.70;12.45;;;15.40;88.70;;;;;;4966696;28;20015;-73
2021/05/08 07:35:37;;;;;;;61.35;27.10;;;15.10;84.80;;;;;;4978397;28;20351;-70
2021/05/08 07:38:03;;;;;;;22.63;12.93;;;15.10;85.50;;;;;;4977153;28;20070;-70
2021/05/08 07:40:32;;;;;;;9.75;7.30;;;15.10;79.70;;;;;;4975497;28;20027;-70
2021/05/08 07:42:59;;;;;;;6.30;4.78;;;14.90;80.50;;;;;;4976779;28;20023;-70
2021/05/08 07:45:26;;;;;;;5.38;4.05;;;15.20;82.70;;;;;;4975735;28;20078;-71
2021/05/08 07:47:53;;;;;;;5.75;3.85;;;15.10;77.80;;;;;;4975890;28;20061;-72
2021/05/08 07:50:19;;;;;;;6.07;3.60;;;;;;;;;;4975571;28;20033;-71
2021/05/08 07:52:46;;;;;;;4.72;3.35;;;;;;;;;;4975291;28;20039;-70
2021/05/08 07:55:12;;;;;;;5.30;3.53;;;16.20;79.60;;;;;;4975564;28;20019;-68
2021/05/08 07:57:40;;;;;;;5.18;3.50;;;15.30;75.00;;;;;;4975414;28;20070;-68
2021/05/08 08:00:08;;;;;;;9.88;6.57;;;16.10;82.10;;;;;;4976179;28;20015;-68
2021/05/08 08:02:35;;;;;;;6.32;4.70;;;16.00;76.10;;;;;;4975362;28;20038;-68
2021/05/08 08:05:02;;;;;;;5.97;4.80;;;16.00;77.60;;;;;;4975378;28;20057;-68
2021/05/08 08:07:28;;;;;;;5.32;4.40;;;16.00;81.00;;;;;;4958015;28;20563;-68
2021/05/08 08:09:55;;;;;;;4.82;3.97;;;16.20;77.30;;;;;;4975430;28;20416;-68
2021/05/08 08:12:21;;;;;;;4.57;3.60;;;16.70;78.90;;;;;;4975380;28;20369;-68
2021/05/08 08:14:48;;;;;;;5.05;3.75;;;15.50;73.00;;;;;;4975406;28;20030;-68
2021/05/08 08:17:14;;;;;;;3.95;3.00;;;15.90;73.90;;;;;;4975321;28;20018;-68
2021/05/08 08:19:41;;;;;;;4.75;3.25;;;16.00;75.20;;;;;;4975270;28;20109;-68
2021/05/08 08:22:07;;;;;;;3.72;3.30;;;16.20;74.10;;;;;;4975481;28;20023;-68
2021/05/08 08:24:33;;;;;;;4.50;3.20;;;16.10;70.60;;;;;;4975105;28;20078;-65
2021/05/08 08:27:00;;;;;;;5.03;3.40;;;16.40;71.50;;;;;;4974979;28;20031;-68
2021/05/08 08:29:28;;;;;;;3.97;3.10;;;16.70;73.20;;;;;;4975097;28;20473;-68
2021/05/08 08:31:54;;;;;;;3.60;3.30;;;16.90;75.00;;;;;;4974992;28;20033;-66
2021/05/08 08:34:20;;;;;;;3.22;2.70;;;16.90;71.60;;;;;;4975039;28;20521;-68
2021/05/08 08:36:46;;;;;;;4.13;3.38;;;16.80;68.30;;;;;;4975242;28;20410;-68
2021/05/08 08:39:12;;;;;;;4.20;3.20;;;17.20;71.50;;;;;;4975321;28;20070;-68
2021/05/08 08:41:38;;;;;;;3.55;2.90;;;17.80;72.60;;;;;;4974843;28;20023;-68
2021/05/08 08:44:10;;;;;;;5.18;3.30;;;18.20;74.40;;;;;;4956720;28;20027;-66
2021/05/08 08:46:43;;;;;;;3.85;2.90;;;18.20;70.00;;;;;;4974906;28;20549;-68
2021/05/08 08:49:11;;;;;;;3.78;3.10;;;17.80;66.70;;;;;;4975145;28;20454;-68
2021/05/08 08:51:40;;;;;;;5.25;3.30;;;17.80;70.20;;;;;;4973957;28;20031;-68
2021/05/08 08:54:07;;;;;;;3.83;2.95;;;17.90;68.50;;;;;;4974414;28;20548;-68
2021/05/08 08:56:47;;;;;;;4.03;3.05;;;18.10;68.50;;;;;;4974726;28;20033;-67
2021/05/08 08:59:35;;;;;;;6.60;2.67;;;17.30;59.60;;;;;;4974829;28;20031;-68
2021/05/08 09:02:00;;;;;;;3.72;2.67;;;17.90;67.10;;;;;;4974240;28;20039;-68
2021/05/08 09:04:27;;;;;;;4.00;2.67;;;17.80;64.50;;;;;;4974630;28;20085;-68
2021/05/08 09:06:54;;;;;;;3.08;2.47;;;18.30;65.00;;;;;;4974845;28;20054;-69
2021/05/08 09:09:22;;;;;;;3.20;2.42;;;18.60;64.60;;;;;;4974835;28;20538;-68
2021/05/08 09:11:49;;;;;;;3.25;2.83;;;18.50;63.70;;;;;;4974737;28;20031;-66
2021/05/08 09:14:27;;;;;;;4.10;2.60;;;17.40;59.60;;;;;;4974872;28;20027;-68
2021/05/08 09:17:02;;;;;;;3.13;2.10;;;17.70;62.00;;;;;;4974815;28;20553;-67
2021/05/08 09:19:29;;;;;;;3.13;2.50;;;17.70;59.10;;;;;;4975119;28;20110;-68
2021/05/08 09:21:55;;;;;;;6.68;3.35;;;18.20;62.00;;;;;;4975004;28;20023;-67
2021/05/08 09:24:22;;;;;;;3.33;2.65;;;;;;;;;;4974517;28;20114;-67
2021/05/08 09:26:52;;;;;;;5.00;3.25;;;18.50;62.20;;;;;;4974847;28;20065;-68
2021/05/08 09:29:23;;;;;;;3.92;3.00;;;17.60;61.90;;;;;;4974842;28;20110;-69
2021/05/08 09:32:00;;;;;;;5.53;3.05;;;17.20;61.70;;;;;;4974613;28;20089;-68
2021/05/08 09:34:26;;;;;;;3.58;2.05;;;17.10;62.30;;;;;;4974467;28;20037;-68
2021/05/08 09:36:54;;;;;;;3.58;2.50;;;16.80;57.20;;;;;;4974486;28;20027;-68
2021/05/08 09:39:33;;;;;;;4.15;3.00;;;17.20;58.10;;;;;;4975371;28;20015;-66
2021/05/08 09:42:02;;;;;;;3.80;2.22;;;17.90;61.00;;;;;;4975130;28;20452;-68
2021/05/08 09:44:28;;;;;;;3.55;1.98;;;18.00;58.30;;;;;;4974704;28;20411;-69
2021/05/08 09:46:58;;;;;;;2.45;1.90;;;18.20;60.00;;;;;;4974853;28;20026;-66
2021/05/08 09:49:24;;;;;;;2.80;1.90;;;18.40;58.50;;;;;;4974517;28;20023;-67
2021/05/08 09:52:03;;;;;;;2.85;2.33;;;18.90;60.40;;;;;;4974334;28;20165;-67
2021/05/08 09:54:29;;;;;;;3.85;2.30;;;19.00;60.60;;;;;;4936146;29;20126;-68
2021/05/08 09:56:55;;;;;;;2.45;2.00;;;19.00;59.20;;;;;;4936143;29;20028;-69
2021/05/08 09:59:36;;;;;;;4.30;3.40;;;;;;;;;;4935704;29;20041;-68
2021/05/08 10:02:02;;;;;;;4.68;3.08;;;19.20;54.70;;;;;;4936265;29;20023;-68
2021/05/08 10:04:48;;;;;;;4.35;3.05;;;18.90;53.90;;;;;;4938660;29;20028;-69
2021/05/08 10:07:21;;;;;;;3.03;1.92;;;19.40;56.20;;;;;;4939390;29;20414;-69
2021/05/08 10:09:49;;;;;;;5.80;4.28;;;18.90;54.50;;;;;;4939117;29;20023;-68
2021/05/08 10:12:17;;;;;;;7.45;4.70;;;18.90;55.10;;;;;;4939098;29;20024;-68
2021/05/08 10:14:44;;;;;;;8.32;5.22;;;18.80;56.20;;;;;;4939096;29;20482;-67
2021/05/08 10:17:12;;;;;;;4.25;2.25;;;18.80;50.90;;;;;;4939368;29;20466;-68
2021/05/08 10:19:44;;;;;;;4.50;3.10;;;19.50;56.10;;;;;;4938939;29;20494;-67
2021/05/08 10:22:12;;;;;;;3.53;2.50;;;19.60;56.80;;;;;;4939185;29;20466;-66
2021/05/08 10:24:44;;;;;;;4.85;3.22;;;18.40;53.90;;;;;;4939132;29;20051;-68
2021/05/08 10:27:10;;;;;;;4.60;3.38;;;18.60;58.40;;;;;;4939189;29;20028;-66
2021/05/08 10:29:47;;;;;;;8.70;6.00;;;19.10;57.20;;;;;;4939074;29;20038;-68
2021/05/08 10:32:16;;;;;;;13.38;7.43;;;19.20;54.70;;;;;;4938637;29;20478;-67
2021/05/08 10:35:02;;;;;;;4.18;2.70;;;19.50;61.40;;;;;;4938872;29;20016;-68
2021/05/08 10:37:29;;;;;;;6.07;3.83;;;19.20;56.80;;;;;;4938882;29;20059;-69
2021/05/08 10:39:58;;;;;;;5.40;3.28;;;19.00;53.50;;;;;;4938869;29;20039;-67
2021/05/08 10:42:31;;;;;;;12.45;7.85;;;19.70;56.70;;;;;;4938773;29;20074;-68
2021/05/08 10:45:01;;;;;;;7.50;5.00;;;19.90;61.00;;;;;;4938908;29;20040;-67
2021/05/08 10:47:59;;;;;;;8.57;5.93;;;19.40;55.00;;;;;;4938718;29;20366;-68
2021/05/08 10:50:37;;;;;;;4.15;2.70;;;19.40;54.90;;;;;;4938243;29;20087;-69
2021/05/08 10:53:19;;;;;;;5.68;3.95;;;19.20;52.40;;;;;;4956744;28;20440;-69
2021/05/08 10:55:58;;;;;;;3.00;2.20;;;19.70;57.30;;;;;;4976978;28;20473;-69
2021/05/08 10:58:32;;;;;;;4.68;2.90;;;20.30;51.40;;;;;;4976936;28;20019;-66
2021/05/08 11:01:04;;;;;;;5.17;2.60;;;20.80;55.50;;;;;;4976580;28;20046;-68
2021/05/08 11:03:45;;;;;;;2.95;2.08;;;20.20;50.90;;;;;;4976657;28;20299;-69
2021/05/08 11:06:11;;;;;;;3.50;2.97;;;19.70;48.40;;;;;;4976446;28;20027;-69
2021/05/08 11:08:37;;;;;;;2.95;2.30;;;20.30;55.20;;;;;;4975854;28;20050;-68
2021/05/08 11:11:06;;;;;;;2.88;2.30;;;20.40;50.80;;;;;;4976335;28;20137;-71
2021/05/08 11:13:41;;;;;;;3.30;2.10;;;20.00;54.90;;;;;;4976406;28;20019;-70
2021/05/08 11:16:16;;;;;;;2.67;1.98;;;19.80;56.00;;;;;;4975602;28;20027;-70
2021/05/08 11:18:44;;;;;;;2.30;1.83;;;19.40;49.50;;;;;;4976380;28;20110;-71
2021/05/08 11:21:13;;;;;;;3.30;1.83;;;19.80;50.20;;;;;;4975952;28;20026;-70
2021/05/08 11:23:49;;;;;;;3.83;2.38;;;20.30;52.10;;;;;;4976041;28;20497;-69
2021/05/08 11:26:24;;;;;;;3.38;2.65;;;20.20;52.60;;;;;;4976159;28;20037;-70
2021/05/08 11:29:08;;;;;;;4.57;2.10;;;19.70;51.00;;;;;;4976169;28;20048;-71
2021/05/08 11:31:36;;;;;;;2.90;2.30;;;20.30;49.90;;;;;;4975913;28;20063;-70
2021/05/08 11:34:11;;;;;;;3.65;2.03;;;20.10;51.90;;;;;;4975889;28;20038;-70
2021/05/08 11:37:01;;;;;;;2.70;2.25;;;20.60;49.60;;;;;;4975560;28;20058;-71
2021/05/08 11:39:33;;;;;;;3.95;2.30;;;19.30;51.60;;;;;;4976414;28;20474;-70
2021/05/08 11:42:04;;;;;;;3.00;2.10;;;19.60;54.30;;;;;;4975842;28;20026;-70
2021/05/08 11:44:36;;;;;;;5.28;2.13;;;19.80;54.10;;;;;;4976121;28;20023;-71
2021/05/08 11:47:33;;;;;;;3.55;2.67;;;20.50;54.50;;;;;;4958345;28;20030;-73
2021/05/08 11:50:11;;;;;;;3.55;2.25;;;20.40;51.20;;;;;;4958448;28;20093;-71
2021/05/08 11:52:44;;;;;;;2.22;1.77;;;20.40;52.00;;;;;;4975469;28;20572;-71
2021/05/08 11:55:13;;;;;;;4.17;2.33;;;20.70;51.40;;;;;;4976298;28;20026;-71
2021/05/08 11:57:46;;;;;;;2.85;2.30;;;20.90;50.90;;;;;;4975422;28;20257;-72
2021/05/08 12:00:18;;;;;;;3.28;2.20;;;21.00;50.80;;;;;;4975584;28;20077;-72
2021/05/08 12:02:44;;;;;;;2.83;2.22;;;21.70;51.90;;;;;;4975524;28;20045;-72
2021/05/08 12:05:10;;;;;;;2.90;2.38;;;21.50;51.00;;;;;;4975363;28;20027;-71
2021/05/08 12:07:41;;;;;;;3.60;2.70;;;20.60;52.20;;;;;;4975441;28;20097;-71
2021/05/08 12:10:15;;;;;;;2.95;2.03;;;21.40;54.50;;;;;;4975236;28;20065;-72
2021/05/08 12:12:49;;;;;;;2.83;2.00;;;21.40;50.60;;;;;;4975269;28;20026;-71
2021/05/08 12:15:23;;;;;;;3.27;2.00;;;21.20;47.40;;;;;;4975364;28;20381;-72
2021/05/08 12:17:54;;;;;;;3.05;1.73;;;20.90;49.40;;;;;;4975364;28;20524;-72
2021/05/08 12:20:23;;;;;;;3.35;1.80;;;20.70;49.70;;;;;;4975131;28;20022;-71
2021/05/08 12:22:51;;;;;;;3.85;2.22;;;20.70;46.80;;;;;;4974970;28;20023;-71
2021/05/08 12:25:18;;;;;;;3.47;2.00;;;21.00;50.30;;;;;;4975047;28;20038;-72
2021/05/08 12:27:44;;;;;;;2.53;1.50;;;21.20;47.60;;;;;;4974337;28;20027;-73
2021/05/08 12:30:11;;;;;;;2.20;1.60;;;21.60;46.90;;;;;;4974877;28;20018;-72
2021/05/08 12:32:57;;;;;;;2.65;1.67;;;21.90;46.60;;;;;;4975094;28;20109;-73
2021/05/08 12:35:25;;;;;;;2.38;1.88;;;21.40;47.00;;;;;;4974344;28;20114;-72
2021/05/08 12:37:51;;;;;;;3.05;2.00;;;20.70;46.70;;;;;;4974717;28;20023;-73
2021/05/08 12:40:30;;;;;;;3.10;2.20;;;21.20;47.80;;;;;;4975398;28;20092;-72
2021/05/08 12:42:56;;;;;;;4.28;2.83;;;21.20;47.20;;;;;;4974961;28;20019;-71
2021/05/08 12:45:22;;;;;;;3.50;2.10;;;21.10;48.70;;;;;;4974852;28;20023;-71
2021/05/08 12:47:48;;;;;;;3.22;2.55;;;21.30;49.10;;;;;;4974690;28;20023;-69
2021/05/08 12:50:26;;;;;;;3.10;2.15;;;21.40;46.60;;;;;;4975253;28;20022;-70
2021/05/08 12:53:06;;;;;;;4.25;2.50;;;21.90;49.50;;;;;;4974464;28;20050;-69
2021/05/08 12:55:34;;;;;;;4.07;3.00;;;22.00;49.00;;;;;;4974649;28;20034;-69